Time;durP1;ratioP1;P1;durP2;ratioP2;P2;SDS_P1;SDS_P2;PMS_P1;PMS_P2;Temp;Humidity;BMP_temperature;BMP_pressure;BME280_temperature;BME280_humidity;BME280_pressure;Samples;Min_cycle;Max_cycle;Signal;HPM_P1;HPM_P2
2022/12/10 00:01:22;;;;;;;38.50;18.00;;;-1.70;99.90;;;;;;5016441;28;20032;-76
2022/12/10 00:03:48;;;;;;;46.40;22.42;;;-1.70;99.90;;;;;;5050017;28;20017;-77
2022/12/10 00:06:19;;;;;;;45.05;21.70;;;-1.70;99.90;;;;;;5050717;28;20051;-77
2022/12/10 00:08:46;;;;;;;42.08;21.35;;;-1.60;99.90;;;;;;5013768;28;20093;-78
2022/12/10 00:11:13;;;;;;;44.70;21.05;;;-1.60;99.90;;;;;;5020766;28;20116;-78
2022/12/10 00:13:40;;;;;;;38.58;19.95;;;-1.60;99.90;;;;;;5048818;28;20077;-77
2022/12/10 00:16:09;;;;;;;41.97;20.50;;;-1.60;99.90;;;;;;5040566;28;20384;-77
2022/12/10 00:18:37;;;;;;;46.22;20.63;;;-1.50;99.90;;;;;;5030565;28;20654;-77
2022/12/10 00:21:08;;;;;;;39.42;20.33;;;-1.50;99.90;;;;;;5044293;28;20112;-77
2022/12/10 00:23:35;;;;;;;37.05;18.30;;;-1.50;99.90;;;;;;5026544;28;20045;-77
2022/12/10 00:26:03;;;;;;;37.25;18.85;;;-1.50;99.90;;;;;;5050022;28;20451;-77
2022/12/10 00:28:29;;;;;;;38.38;17.50;;;-1.50;99.90;;;;;;5036120;28;20041;-77
2022/12/10 00:30:55;;;;;;;37.33;18.77;;;-1.50;99.90;;;;;;5044557;28;20099;-77
2022/12/10 00:33:21;;;;;;;34.10;17.65;;;-1.50;99.90;;;;;;5016560;28;20033;-78
2022/12/10 00:35:47;;;;;;;37.50;18.08;;;-1.50;99.90;;;;;;5031913;28;20083;-77
2022/12/10 00:38:12;;;;;;;36.47;17.83;;;-1.50;99.90;;;;;;5018943;28;20141;-78
2022/12/10 00:40:38;;;;;;;35.22;17.60;;;-1.50;99.90;;;;;;5016115;28;20035;-78
2022/12/10 00:43:04;;;;;;;34.03;17.25;;;-1.50;99.90;;;;;;4981379;28;20173;-77
2022/12/10 00:45:30;;;;;;;32.65;16.88;;;-1.50;99.90;;;;;;5032850;28;20500;-77
2022/12/10 00:47:56;;;;;;;33.72;16.45;;;-1.50;99.90;;;;;;5047059;28;20469;-77
2022/12/10 00:50:21;;;;;;;30.35;16.10;;;-1.40;99.90;;;;;;5046761;28;20031;-78
2022/12/10 00:52:47;;;;;;;34.58;17.40;;;-1.40;99.90;;;;;;5033758;28;20107;-78
2022/12/10 00:55:13;;;;;;;30.52;15.77;;;-1.40;99.90;;;;;;5042246;28;20025;-77
2022/12/10 00:57:38;;;;;;;33.35;16.23;;;-1.40;99.90;;;;;;5006767;28;20547;-78
2022/12/10 01:00:05;;;;;;;35.28;16.40;;;-1.40;99.90;;;;;;5027091;28;20054;-78
2022/12/10 01:02:31;;;;;;;36.08;16.70;;;-1.40;99.90;;;;;;5012501;28;20029;-78
2022/12/10 01:04:57;;;;;;;35.00;17.23;;;-1.40;99.90;;;;;;5012615;28;20491;-77
2022/12/10 01:07:23;;;;;;;29.98;15.48;;;-1.40;99.90;;;;;;5037427;28;20033;-77
2022/12/10 01:09:49;;;;;;;33.50;16.15;;;-1.40;99.90;;;;;;5015518;28;20183;-77
2022/12/10 01:12:15;;;;;;;32.13;15.30;;;-1.40;99.90;;;;;;5012647;28;20055;-77
2022/12/10 01:14:41;;;;;;;37.40;16.75;;;-1.30;99.90;;;;;;5028858;28;20055;-78
2022/12/10 01:17:08;;;;;;;30.70;15.60;;;-1.30;99.90;;;;;;5023764;28;20032;-78
2022/12/10 01:19:34;;;;;;;29.80;14.98;;;-1.30;99.90;;;;;;5030005;28;20147;-77
2022/12/10 01:22:02;;;;;;;36.03;17.35;;;-1.30;99.90;;;;;;5023744;28;20060;-78
2022/12/10 01:24:29;;;;;;;31.48;14.77;;;-1.30;99.90;;;;;;5034465;28;20029;-77
2022/12/10 01:26:55;;;;;;;32.05;15.40;;;-1.30;99.90;;;;;;5026914;28;20025;-77
2022/12/10 01:29:21;;;;;;;30.23;14.40;;;-1.30;99.90;;;;;;5048542;28;20570;-77
2022/12/10 01:31:51;;;;;;;27.20;14.23;;;-1.30;99.90;;;;;;5016361;28;20474;-77
2022/12/10 01:34:17;;;;;;;28.25;14.77;;;-1.30;99.90;;;;;;5014544;28;20041;-77
2022/12/10 01:36:45;;;;;;;29.77;14.18;;;-1.30;99.90;;;;;;5041393;28;20029;-78
2022/12/10 01:39:13;;;;;;;27.88;14.75;;;-1.30;99.90;;;;;;5012307;28;20037;-78
2022/12/10 01:41:45;;;;;;;29.05;14.93;;;-1.30;99.90;;;;;;5044353;28;20025;-77
2022/12/10 01:44:11;;;;;;;30.63;14.95;;;-1.30;99.90;;;;;;5030862;28;20029;-79
2022/12/10 01:46:43;;;;;;;32.72;16.02;;;-1.30;99.90;;;;;;5058436;28;20112;-79
2022/12/10 01:49:12;;;;;;;32.88;15.75;;;-1.30;99.90;;;;;;5012953;28;20386;-78
2022/12/10 01:51:40;;;;;;;29.98;15.10;;;-1.30;99.90;;;;;;5032871;28;20036;-79
2022/12/10 01:54:10;;;;;;;36.65;16.08;;;-1.30;99.90;;;;;;5045308;28;20059;-79
2022/12/10 01:56:40;;;;;;;29.90;15.20;;;-1.30;99.90;;;;;;5049672;28;20036;-79
2022/12/10 01:59:07;;;;;;;30.02;15.45;;;-1.20;99.90;;;;;;5030311;28;20029;-78
2022/12/10 02:01:41;;;;;;;36.72;15.43;;;-1.30;99.90;;;;;;5035016;28;20036;-79
2022/12/10 02:04:22;;;;;;;29.25;15.20;;;-1.30;99.90;;;;;;5030535;28;20090;-78
2022/12/10 02:06:54;;;;;;;33.70;16.33;;;-1.30;99.90;;;;;;5046078;28;20343;-79
2022/12/10 02:09:43;;;;;;;32.75;14.70;;;-1.30;99.90;;;;;;5029499;28;20036;-79
2022/12/10 02:12:23;;;;;;;32.50;14.57;;;-1.30;99.90;;;;;;5029936;28;20028;-79
2022/12/10 02:14:55;;;;;;;31.95;14.63;;;-1.30;99.90;;;;;;5022024;28;20033;-78
2022/12/10 02:17:39;;;;;;;29.08;14.60;;;-1.30;99.90;;;;;;5051657;28;20025;-79
2022/12/10 02:20:20;;;;;;;35.90;15.90;;;-1.30;99.90;;;;;;5024673;28;20079;-80
2022/12/10 02:22:58;;;;;;;33.42;16.15;;;-1.30;99.90;;;;;;5013956;28;20041;-80
2022/12/10 02:25:32;;;;;;;30.83;15.55;;;-1.30;99.90;;;;;;5026565;28;20516;-78
2022/12/10 02:28:10;;;;;;;26.73;13.98;;;-1.30;99.90;;;;;;5033852;28;20063;-79
2022/12/10 02:30:38;;;;;;;30.58;15.20;;;-1.30;99.90;;;;;;5033764;28;20094;-79
2022/12/10 02:33:07;;;;;;;31.02;15.48;;;-1.30;99.90;;;;;;5038235;28;20036;-79
2022/12/10 02:35:38;;;;;;;26.65;15.00;;;-1.30;99.90;;;;;;5033451;28;20029;-79
2022/12/10 02:38:13;;;;;;;31.15;14.80;;;-1.30;99.90;;;;;;5014022;28;20041;-78
2022/12/10 02:40:46;;;;;;;31.83;15.80;;;-1.30;99.90;;;;;;5018039;28;20033;-79
2022/12/10 02:43:14;;;;;;;30.08;13.85;;;-1.30;99.90;;;;;;5029198;28;20029;-79
2022/12/10 02:45:42;;;;;;;31.25;15.18;;;-1.30;99.90;;;;;;5039480;28;20537;-79
2022/12/10 02:48:09;;;;;;;31.13;15.23;;;-1.30;99.90;;;;;;5016067;28;20033;-79
2022/12/10 02:50:39;;;;;;;29.40;14.73;;;-1.30;99.90;;;;;;5033507;28;20031;-79
2022/12/10 02:53:05;;;;;;;30.58;15.93;;;-1.30;99.90;;;;;;5033172;28;20283;-79
2022/12/10 02:55:46;;;;;;;27.63;14.05;;;-1.30;99.90;;;;;;5038244;28;20025;-78
2022/12/10 02:58:37;;;;;;;30.63;14.63;;;-1.20;99.90;;;;;;5041011;28;20029;-79
2022/12/10 03:01:14;;;;;;;29.10;14.35;;;-1.20;99.90;;;;;;5004062;28;20030;-79
2022/12/10 03:03:52;;;;;;;25.80;14.00;;;-1.20;99.90;;;;;;5018526;28;20036;-79
2022/12/10 03:06:37;;;;;;;31.95;14.65;;;-1.30;99.90;;;;;;5039672;28;20124;-79
2022/12/10 03:09:19;;;;;;;29.98;13.95;;;-1.30;99.90;;;;;;5046142;28;20045;-79
2022/12/10 03:11:49;;;;;;;31.20;14.82;;;-1.30;99.90;;;;;;5013892;28;20034;-79
2022/12/10 03:14:27;;;;;;;31.35;16.00;;;-1.30;99.90;;;;;;5025271;28;20025;-79
2022/12/10 03:16:58;;;;;;;31.75;16.25;;;-1.30;99.90;;;;;;5049885;28;20052;-79
2022/12/10 03:19:37;;;;;;;30.85;15.60;;;-1.30;99.90;;;;;;5038905;28;20038;-79
2022/12/10 03:22:05;;;;;;;31.23;14.30;;;-1.20;99.90;;;;;;5046265;28;20040;-79
2022/12/10 03:24:34;;;;;;;31.20;16.50;;;-1.20;99.90;;;;;;5039313;28;20098;-79
2022/12/10 03:27:04;;;;;;;26.95;14.60;;;-1.20;99.90;;;;;;5046510;28;20051;-79
2022/12/10 03:29:37;;;;;;;27.25;13.90;;;-1.20;99.90;;;;;;5020508;28;20097;-79
2022/12/10 03:32:04;;;;;;;29.85;14.90;;;-1.20;99.90;;;;;;5049836;28;20029;-78
2022/12/10 03:34:31;;;;;;;31.38;15.68;;;-1.20;99.90;;;;;;5031825;28;20133;-78
2022/12/10 03:36:58;;;;;;;31.67;15.65;;;-1.20;99.90;;;;;;5029533;28;20044;-78
2022/12/10 03:39:25;;;;;;;27.08;13.98;;;-1.20;99.90;;;;;;5023696;28;20040;-79
2022/12/10 03:41:51;;;;;;;27.00;14.30;;;-1.20;99.90;;;;;;5037817;28;20120;-79
2022/12/10 03:44:31;;;;;;;28.35;14.82;;;-1.20;99.90;;;;;;5040839;28;20076;-79
2022/12/10 03:46:57;;;;;;;29.23;14.15;;;-1.20;99.90;;;;;;5038698;28;20486;-79
2022/12/10 03:49:24;;;;;;;31.02;15.30;;;-1.20;99.90;;;;;;5039204;28;20040;-79
2022/12/10 03:51:49;;;;;;;30.15;14.02;;;-1.20;99.90;;;;;;5035827;28;20064;-79
2022/12/10 03:54:15;;;;;;;28.27;13.80;;;-1.20;99.90;;;;;;5033791;28;20154;-79
2022/12/10 03:56:41;;;;;;;28.80;15.40;;;-1.20;99.90;;;;;;5047847;28;20036;-79
2022/12/10 03:59:07;;;;;;;33.00;15.45;;;-1.20;99.90;;;;;;5024718;28;20033;-79
2022/12/10 04:01:32;;;;;;;30.33;15.13;;;-1.20;99.90;;;;;;5048948;28;20032;-79
2022/12/10 04:03:58;;;;;;;28.90;14.65;;;-1.20;99.90;;;;;;5032271;28;20091;-79
2022/12/10 04:06:24;;;;;;;29.70;15.05;;;-1.20;99.90;;;;;;5019196;28;20044;-79
2022/12/10 04:08:52;;;;;;;30.27;14.50;;;-1.20;99.90;;;;;;5025113;28;20128;-79
2022/12/10 04:11:18;;;;;;;28.60;15.00;;;-1.20;99.90;;;;;;5032042;28;20029;-79
2022/12/10 04:16:30;;;;;;;26.92;13.52;;;-1.20;99.90;;;;;;5052478;28;20027;-79
2022/12/10 04:19:07;;;;;;;28.40;14.93;;;-1.20;99.90;;;;;;5021915;28;20041;-79
2022/12/10 04:27:33;;;;;;;29.00;14.55;;;-1.20;99.90;;;;;;5049347;28;20037;-79
2022/12/10 04:29:59;;;;;;;29.35;15.00;;;-1.20;99.90;;;;;;5027123;28;20024;-79
2022/12/10 04:32:27;;;;;;;29.20;13.45;;;-1.20;99.90;;;;;;5054484;28;20486;-79
2022/12/10 04:34:54;;;;;;;27.30;14.50;;;-1.20;99.90;;;;;;5048548;28;20079;-79
2022/12/10 04:37:21;;;;;;;29.38;14.25;;;-1.20;99.90;;;;;;5052984;28;20031;-79
2022/12/10 04:39:47;;;;;;;28.77;14.48;;;-1.20;99.90;;;;;;5035881;28;20212;-78
2022/12/10 04:42:13;;;;;;;27.98;12.90;;;-1.20;99.90;;;;;;5031524;28;20041;-78
2022/12/10 04:44:39;;;;;;;28.98;14.70;;;-1.20;99.90;;;;;;5015164;28;20136;-79
2022/12/10 04:47:05;;;;;;;29.85;15.50;;;-1.20;99.90;;;;;;5034130;28;20060;-79
2022/12/10 04:49:32;;;;;;;24.88;14.23;;;-1.20;99.90;;;;;;5043769;28;20051;-79
2022/12/10 04:51:58;;;;;;;27.52;13.88;;;-1.20;99.90;;;;;;5017139;28;20037;-79
2022/12/10 04:54:23;;;;;;;29.17;14.98;;;-1.20;99.90;;;;;;5038799;28;20032;-78
2022/12/10 04:56:49;;;;;;;30.33;14.45;;;-1.20;99.90;;;;;;5049380;28;20489;-79
2022/12/10 04:59:15;;;;;;;31.85;15.20;;;-1.10;99.90;;;;;;5041826;28;20032;-79
2022/12/10 05:01:41;;;;;;;30.40;14.10;;;-1.20;99.90;;;;;;5016902;28;20051;-79
2022/12/10 05:04:10;;;;;;;26.80;14.20;;;-1.10;99.90;;;;;;5021915;28;20144;-79
2022/12/10 05:06:36;;;;;;;26.83;13.48;;;-1.10;99.90;;;;;;5038781;28;20501;-79
2022/12/10 05:09:03;;;;;;;23.23;12.85;;;-1.10;99.90;;;;;;5051907;28;20029;-79
2022/12/10 05:11:30;;;;;;;27.00;14.00;;;-1.10;99.90;;;;;;5051227;28;20025;-79
2022/12/10 05:13:57;;;;;;;28.60;14.52;;;-1.10;99.90;;;;;;5033319;28;20045;-79
2022/12/10 05:16:25;;;;;;;29.48;14.35;;;-1.10;99.90;;;;;;5019845;28;20502;-79
2022/12/10 05:18:53;;;;;;;24.85;13.55;;;-1.10;99.90;;;;;;5033591;28;20618;-79
2022/12/10 05:21:20;;;;;;;28.60;13.05;;;-1.00;99.90;;;;;;5004492;28;20021;-78
2022/12/10 05:23:49;;;;;;;25.67;13.65;;;-1.00;99.90;;;;;;5028344;28;20029;-79
2022/12/10 05:26:18;;;;;;;25.80;12.40;;;-1.00;99.90;;;;;;5027546;28;20025;-79
2022/12/10 05:28:49;;;;;;;25.83;12.35;;;-1.00;99.90;;;;;;5051386;28;20098;-78
2022/12/10 05:31:18;;;;;;;26.50;13.30;;;-1.00;99.90;;;;;;5030572;28;20033;-79
2022/12/10 05:33:44;;;;;;;24.77;12.30;;;-1.00;99.90;;;;;;5016767;28;20037;-79
2022/12/10 05:36:12;;;;;;;25.73;12.57;;;-1.00;99.90;;;;;;5038056;28;20029;-78
2022/12/10 05:38:39;;;;;;;23.45;11.85;;;-1.00;99.90;;;;;;5029852;28;20034;-79
2022/12/10 05:41:09;;;;;;;26.52;12.60;;;-1.00;99.90;;;;;;5033933;28;20033;-78
2022/12/10 05:43:35;;;;;;;27.48;13.77;;;-1.00;99.90;;;;;;5016815;28;20033;-78
2022/12/10 05:46:03;;;;;;;25.17;12.70;;;-1.00;99.90;;;;;;5047620;28;20401;-79
2022/12/10 05:48:29;;;;;;;24.83;12.88;;;-1.00;99.90;;;;;;5028672;28;20046;-79
2022/12/10 05:50:54;;;;;;;24.23;12.38;;;-1.00;99.90;;;;;;5051403;28;20068;-79
2022/12/10 05:53:20;;;;;;;25.98;13.13;;;-1.00;99.90;;;;;;5031579;28;20064;-79
2022/12/10 05:55:46;;;;;;;24.27;13.32;;;-1.00;99.90;;;;;;5044424;28;20036;-79
2022/12/10 05:58:12;;;;;;;29.27;14.00;;;-1.00;99.90;;;;;;5017342;28;20035;-78
2022/12/10 06:00:40;;;;;;;27.50;13.60;;;-1.00;99.90;;;;;;5015367;28;20120;-79
2022/12/10 06:03:07;;;;;;;26.60;13.82;;;-1.00;99.90;;;;;;5031835;28;20039;-79
2022/12/10 06:05:40;;;;;;;30.38;14.32;;;-1.00;99.90;;;;;;5031469;28;20037;-78
2022/12/10 06:08:07;;;;;;;30.10;14.25;;;-1.00;99.90;;;;;;5027466;28;20497;-79
2022/12/10 06:10:36;;;;;;;30.95;15.15;;;-1.00;99.90;;;;;;5049799;28;20033;-78
2022/12/10 06:13:03;;;;;;;23.23;12.68;;;-0.90;99.90;;;;;;5032093;28;20037;-79
2022/12/10 06:15:30;;;;;;;27.88;13.52;;;-0.90;99.90;;;;;;5031694;28;20401;-79
2022/12/10 06:17:57;;;;;;;29.60;14.88;;;-0.90;99.90;;;;;;5047039;28;20516;-78
2022/12/10 06:20:24;;;;;;;34.17;14.93;;;-0.90;99.90;;;;;;5046171;28;20036;-79
2022/12/10 06:22:50;;;;;;;26.83;14.05;;;-1.00;99.90;;;;;;5030120;28;20507;-79
2022/12/10 06:25:16;;;;;;;26.88;13.88;;;-0.90;99.90;;;;;;5013688;28;20119;-78
2022/12/10 06:27:42;;;;;;;29.13;14.88;;;-0.90;99.90;;;;;;5036941;28;20028;-78
2022/12/10 06:30:09;;;;;;;25.63;13.23;;;-0.90;99.90;;;;;;5047588;28;20520;-78
2022/12/10 06:32:35;;;;;;;32.30;15.18;;;-0.90;99.90;;;;;;5033394;28;20112;-79
2022/12/10 06:35:01;;;;;;;28.00;13.63;;;-0.90;99.90;;;;;;5031791;28;20064;-79
2022/12/10 06:37:27;;;;;;;23.55;12.63;;;-0.90;99.90;;;;;;5009643;28;20104;-79
2022/12/10 06:39:53;;;;;;;26.80;14.25;;;-0.80;99.90;;;;;;5042234;28;20037;-79
2022/12/10 06:42:19;;;;;;;25.85;13.73;;;-0.90;99.90;;;;;;5027821;28;20029;-80
2022/12/10 06:44:45;;;;;;;25.33;12.90;;;-0.90;99.90;;;;;;5010516;28;20033;-79
2022/12/10 06:47:12;;;;;;;25.90;13.30;;;-0.90;99.90;;;;;;5015539;28;20487;-79
2022/12/10 06:49:37;;;;;;;29.42;13.40;;;-0.90;99.90;;;;;;5039942;28;20060;-78
2022/12/10 06:52:03;;;;;;;23.73;12.38;;;-0.90;99.90;;;;;;5014830;28;20057;-78
2022/12/10 06:54:30;;;;;;;27.42;14.57;;;-0.90;99.90;;;;;;5027270;28;20028;-78
2022/12/10 06:56:56;;;;;;;28.27;14.30;;;-0.90;99.90;;;;;;5024791;28;20154;-78
2022/12/10 06:59:22;;;;;;;28.58;14.85;;;-0.90;99.90;;;;;;5043229;28;20030;-81
2022/12/10 07:01:48;;;;;;;31.25;14.40;;;-0.90;99.90;;;;;;5014346;28;20555;-78
2022/12/10 07:04:14;;;;;;;30.65;14.98;;;-0.90;99.90;;;;;;5028896;28;20025;-78
2022/12/10 07:06:40;;;;;;;31.65;14.70;;;-0.90;99.90;;;;;;5044138;28;20155;-77
2022/12/10 07:09:07;;;;;;;29.15;15.57;;;-0.90;99.90;;;;;;5039942;28;20564;-78
2022/12/10 07:11:32;;;;;;;28.90;14.77;;;-0.90;99.90;;;;;;5030514;28;20159;-78
2022/12/10 07:13:59;;;;;;;31.88;15.23;;;-0.90;99.90;;;;;;5005510;28;20028;-77
2022/12/10 07:16:27;;;;;;;30.60;15.75;;;-0.90;99.90;;;;;;5032510;28;20021;-79
2022/12/10 07:18:55;;;;;;;29.23;15.20;;;-0.90;99.90;;;;;;5050599;28;20037;-77
2022/12/10 07:21:27;;;;;;;33.08;14.85;;;-0.90;99.90;;;;;;5036334;28;20094;-77
2022/12/10 07:23:57;;;;;;;29.15;15.13;;;-0.90;99.90;;;;;;5054780;28;20438;-79
2022/12/10 07:26:24;;;;;;;30.92;15.63;;;-0.90;99.90;;;;;;5047235;28;20059;-78
2022/12/10 07:28:50;;;;;;;29.48;15.35;;;-0.90;99.90;;;;;;5012151;28;20033;-79
2022/12/10 07:31:18;;;;;;;27.23;13.68;;;-0.90;99.90;;;;;;5036307;28;20043;-78
2022/12/10 07:33:44;;;;;;;27.13;13.43;;;-0.90;99.90;;;;;;5051828;28;20688;-79
2022/12/10 07:36:11;;;;;;;25.67;12.27;;;-0.90;99.90;;;;;;5012245;28;20101;-79
2022/12/10 07:38:38;;;;;;;26.10;13.52;;;-0.90;99.90;;;;;;5048652;28;20033;-79
2022/12/10 07:41:06;;;;;;;31.92;14.80;;;-0.80;99.90;;;;;;5055365;28;20031;-79
2022/12/10 07:43:36;;;;;;;31.77;15.18;;;-0.80;99.90;;;;;;5049287;28;20053;-79
2022/12/10 07:46:08;;;;;;;29.42;14.88;;;-0.80;99.90;;;;;;5020135;28;20028;-79
2022/12/10 07:48:35;;;;;;;32.75;15.35;;;-0.80;99.90;;;;;;5055580;28;20029;-79
2022/12/10 07:51:01;;;;;;;26.60;14.32;;;-0.80;99.90;;;;;;5033850;28;20532;-78
2022/12/10 07:53:27;;;;;;;29.83;14.68;;;-0.80;99.90;;;;;;5057189;28;20587;-78
2022/12/10 07:55:52;;;;;;;32.17;15.23;;;-0.70;99.90;;;;;;5038005;28;20087;-78
2022/12/10 07:58:18;;;;;;;31.45;15.32;;;-0.70;99.90;;;;;;5052313;28;20056;-78
2022/12/10 08:00:44;;;;;;;34.95;16.80;;;-0.70;99.90;;;;;;5034354;28;20389;-77
2022/12/10 08:03:10;;;;;;;37.17;16.48;;;-0.70;99.90;;;;;;5016482;28;20025;-77
2022/12/10 08:05:36;;;;;;;32.15;16.10;;;-0.70;99.90;;;;;;5036544;28;20094;-77
2022/12/10 08:08:02;;;;;;;35.20;16.33;;;-0.70;99.90;;;;;;5051399;28;20493;-78
2022/12/10 08:10:27;;;;;;;32.30;16.10;;;-0.60;99.90;;;;;;5037184;28;20413;-77
2022/12/10 08:12:53;;;;;;;35.65;16.52;;;-0.60;99.90;;;;;;5022479;28;20675;-77
2022/12/10 08:15:19;;;;;;;33.72;16.40;;;-0.60;99.90;;;;;;5039851;28;20033;-77
2022/12/10 08:17:45;;;;;;;30.90;15.55;;;-0.60;99.90;;;;;;5051206;28;20021;-79
2022/12/10 08:20:11;;;;;;;33.03;17.17;;;-0.60;99.90;;;;;;5050592;28;20025;-81
2022/12/10 08:22:38;;;;;;;35.88;15.63;;;-0.60;99.90;;;;;;5049197;28;20086;-78
2022/12/10 08:25:05;;;;;;;34.67;16.20;;;-0.60;99.90;;;;;;5049347;28;20036;-78
2022/12/10 08:27:31;;;;;;;30.92;15.32;;;-0.50;99.90;;;;;;5050516;28;20024;-78
2022/12/10 08:29:56;;;;;;;30.25;14.82;;;-0.50;99.90;;;;;;5043734;28;20029;-78
2022/12/10 08:32:22;;;;;;;33.17;15.95;;;-0.50;99.90;;;;;;5036411;28;20532;-78
2022/12/10 08:34:48;;;;;;;34.30;16.40;;;-0.50;99.90;;;;;;5038104;28;20044;-78
2022/12/10 08:37:14;;;;;;;34.30;16.20;;;-0.50;99.90;;;;;;5023782;28;20103;-78
2022/12/10 08:39:41;;;;;;;34.42;16.38;;;-0.50;99.90;;;;;;5019482;28;20033;-78
2022/12/10 08:42:07;;;;;;;39.65;17.50;;;-0.40;99.90;;;;;;5028441;28;20398;-77
2022/12/10 08:44:33;;;;;;;36.20;16.02;;;-0.50;99.90;;;;;;5012449;28;20041;-77
2022/12/10 08:46:58;;;;;;;34.83;16.80;;;-0.40;99.90;;;;;;5028259;28;20037;-78
2022/12/10 08:49:24;;;;;;;36.03;17.08;;;-0.40;99.90;;;;;;5022326;28;20135;-77
2022/12/10 08:51:50;;;;;;;31.73;15.52;;;-0.40;99.90;;;;;;5040431;28;20123;-77
2022/12/10 08:54:16;;;;;;;27.90;14.55;;;-0.40;99.90;;;;;;5041402;28;20115;-77
2022/12/10 08:56:41;;;;;;;36.03;16.70;;;-0.30;99.90;;;;;;5031314;28;20083;-77
2022/12/10 08:59:07;;;;;;;37.55;17.75;;;-0.30;99.90;;;;;;5015594;28;20033;-78
2022/12/10 09:01:33;;;;;;;38.70;18.45;;;-0.30;99.90;;;;;;5028123;28;20115;-77
2022/12/10 09:04:01;;;;;;;38.63;17.83;;;-0.30;99.90;;;;;;5026587;28;20029;-77
2022/12/10 09:06:28;;;;;;;37.83;18.20;;;-0.30;99.90;;;;;;5016939;28;20028;-77
2022/12/10 09:08:54;;;;;;;42.20;18.85;;;-0.30;99.90;;;;;;5042147;28;20021;-77
2022/12/10 09:11:32;;;;;;;43.42;18.27;;;-0.20;99.90;;;;;;5045808;28;20037;-77
2022/12/10 09:13:58;;;;;;;41.85;19.23;;;-0.20;99.90;;;;;;5020822;28;20029;-76
2022/12/10 09:16:36;;;;;;;42.33;19.25;;;-0.20;99.90;;;;;;5010816;28;20486;-77
2022/12/10 09:19:03;;;;;;;40.80;19.08;;;-0.20;99.90;;;;;;5033810;28;20048;-77
2022/12/10 09:21:30;;;;;;;40.63;18.65;;;-0.20;99.90;;;;;;5044170;28;20051;-77
2022/12/10 09:23:56;;;;;;;38.25;18.00;;;-0.20;99.90;;;;;;4998139;28;20068;-78
2022/12/10 09:26:22;;;;;;;39.22;18.25;;;-0.20;99.90;;;;;;5027475;28;20082;-77
2022/12/10 09:28:48;;;;;;;40.83;18.33;;;-0.20;99.90;;;;;;5030074;28;20061;-78
2022/12/10 09:31:16;;;;;;;35.63;17.17;;;-0.20;99.90;;;;;;5027248;28;20029;-78
2022/12/10 09:33:42;;;;;;;41.65;20.35;;;-0.20;99.90;;;;;;5031408;28;20052;-78
2022/12/10 09:36:10;;;;;;;42.83;18.52;;;-0.10;99.90;;;;;;5047730;28;20029;-78
2022/12/10 09:38:38;;;;;;;36.90;19.48;;;-0.20;99.90;;;;;;5033174;28;20159;-78
2022/12/10 09:41:24;;;;;;;43.38;19.80;;;-0.10;99.90;;;;;;5028313;28;20112;-78
2022/12/10 09:43:55;;;;;;;41.28;19.92;;;-0.10;99.90;;;;;;5030738;28;20045;-78
2022/12/10 09:46:55;;;;;;;41.00;18.60;;;-0.10;99.90;;;;;;5043368;28;20115;-78
2022/12/10 09:49:33;;;;;;;45.55;19.05;;;-0.10;99.90;;;;;;5027614;28;20021;-77
2022/12/10 09:52:09;;;;;;;39.90;19.17;;;0.00;99.90;;;;;;5048232;28;20065;-78
2022/12/10 09:54:43;;;;;;;39.38;19.27;;;0.00;99.90;;;;;;5045260;28;20569;-78
2022/12/10 09:57:24;;;;;;;39.47;18.92;;;0.00;99.90;;;;;;5033145;28;20039;-78
2022/12/10 09:59:51;;;;;;;39.50;18.85;;;0.00;99.90;;;;;;5018472;28;20560;-78
2022/12/10 10:02:30;;;;;;;39.85;19.73;;;0.00;99.90;;;;;;5043119;28;20021;-77
2022/12/10 10:05:05;;;;;;;40.05;19.50;;;0.00;99.90;;;;;;5028366;28;20040;-79
2022/12/10 10:07:37;;;;;;;40.42;19.38;;;0.00;99.90;;;;;;5029796;28;20036;-77
2022/12/10 10:10:07;;;;;;;40.50;19.35;;;0.00;99.90;;;;;;5024479;28;20103;-78
2022/12/10 10:12:34;;;;;;;43.65;19.58;;;0.10;99.90;;;;;;5026340;28;20068;-79
2022/12/10 10:15:34;;;;;;;41.13;19.40;;;0.10;99.90;;;;;;5052630;28;20039;-78
2022/12/10 10:18:13;;;;;;;40.22;18.45;;;0.10;99.90;;;;;;5021607;28;20638;-78
2022/12/10 10:20:40;;;;;;;41.60;19.58;;;0.10;99.90;;;;;;5022697;28;20021;-78
2022/12/10 10:23:08;;;;;;;41.90;18.70;;;0.20;99.90;;;;;;5014098;28;20029;-77
2022/12/10 10:25:34;;;;;;;39.97;18.63;;;0.20;99.90;;;;;;5044036;28;20029;-78
2022/12/10 10:28:00;;;;;;;39.22;18.85;;;0.20;99.90;;;;;;5011043;28;20701;-78
2022/12/10 10:30:25;;;;;;;40.28;18.85;;;0.20;99.90;;;;;;5011854;28;20041;-79
2022/12/10 10:32:56;;;;;;;39.53;18.58;;;0.20;99.90;;;;;;5030102;28;20037;-79
2022/12/10 10:35:28;;;;;;;36.58;17.35;;;0.20;99.90;;;;;;5028470;28;20095;-78
2022/12/10 10:38:01;;;;;;;40.33;19.75;;;0.30;99.90;;;;;;5040104;28;20039;-78
2022/12/10 10:40:38;;;;;;;42.25;19.15;;;0.20;99.90;;;;;;5013937;28;20147;-78
2022/12/10 10:43:04;;;;;;;36.53;17.17;;;0.20;99.90;;;;;;5037546;28;20037;-79
2022/12/10 10:45:30;;;;;;;39.20;18.20;;;0.30;99.90;;;;;;5014444;28;20032;-78
2022/12/10 10:48:13;;;;;;;37.65;18.05;;;0.30;99.90;;;;;;5031095;28;20040;-78
2022/12/10 10:50:43;;;;;;;37.35;18.10;;;0.30;99.90;;;;;;5030500;28;20025;-78
2022/12/10 10:53:32;;;;;;;39.50;18.08;;;0.30;99.90;;;;;;5045352;28;20661;-79
2022/12/10 10:56:22;;;;;;;37.92;17.27;;;0.30;99.90;;;;;;5050378;28;20025;-78
2022/12/10 10:59:04;;;;;;;37.30;17.25;;;0.40;99.90;;;;;;5032106;28;20401;-78
2022/12/10 11:01:54;;;;;;;38.00;17.73;;;0.40;99.90;;;;;;5016116;28;20469;-78
2022/12/10 11:04:30;;;;;;;40.20;18.55;;;0.40;99.90;;;;;;5041074;28;20536;-78
2022/12/10 11:06:59;;;;;;;39.60;18.90;;;0.40;99.90;;;;;;5025478;28;20032;-77
2022/12/10 11:09:28;;;;;;;41.67;19.00;;;0.40;99.90;;;;;;5051151;28;20033;-77
2022/12/10 11:12:03;;;;;;;39.15;18.40;;;0.40;99.90;;;;;;5031856;28;20055;-78
2022/12/10 11:14:38;;;;;;;38.80;19.13;;;0.40;99.90;;;;;;5056139;28;20021;-79
2022/12/10 11:17:10;;;;;;;44.67;20.25;;;0.40;99.90;;;;;;5031102;28;20039;-78
2022/12/10 11:19:54;;;;;;;40.03;18.38;;;0.50;99.90;;;;;;5051316;28;20734;-78
2022/12/10 11:22:27;;;;;;;39.10;19.42;;;0.50;99.90;;;;;;5049552;28;20033;-79
2022/12/10 11:24:53;;;;;;;42.72;21.35;;;0.50;99.90;;;;;;5028709;28;20049;-79
2022/12/10 11:27:32;;;;;;;44.63;21.10;;;0.50;99.90;;;;;;5031396;28;20021;-79
2022/12/10 11:30:22;;;;;;;43.17;19.40;;;0.50;99.90;;;;;;5045473;28;20056;-79
2022/12/10 11:33:11;;;;;;;42.00;19.85;;;0.50;99.90;;;;;;5025575;28;20037;-78
2022/12/10 11:36:01;;;;;;;37.70;18.73;;;0.60;99.90;;;;;;5041354;28;20067;-78
2022/12/10 11:38:41;;;;;;;38.90;18.83;;;0.50;99.90;;;;;;5040396;28;20032;-79
2022/12/10 11:41:28;;;;;;;41.63;18.35;;;0.60;99.90;;;;;;5044883;28;20051;-79
2022/12/10 11:43:57;;;;;;;42.70;19.92;;;0.60;99.90;;;;;;5030918;28;20039;-78
2022/12/10 11:46:34;;;;;;;44.10;21.23;;;0.60;99.90;;;;;;5037752;28;20039;-78
2022/12/10 11:49:11;;;;;;;42.20;20.73;;;0.70;99.90;;;;;;5032514;28;20029;-78
2022/12/10 11:51:42;;;;;;;41.83;20.35;;;0.60;99.90;;;;;;5041782;28;20021;-79
2022/12/10 11:54:22;;;;;;;44.80;20.38;;;0.70;99.90;;;;;;5040972;28;20568;-78
2022/12/10 11:57:14;;;;;;;42.20;20.17;;;0.70;99.90;;;;;;5037452;28;20040;-78
2022/12/10 12:00:02;;;;;;;39.75;19.50;;;0.70;99.90;;;;;;5040082;28;20037;-77
2022/12/10 12:02:34;;;;;;;42.05;19.10;;;0.70;99.90;;;;;;5045770;28;20064;-77
2022/12/10 12:05:17;;;;;;;36.72;18.88;;;0.70;99.90;;;;;;5030989;28;20036;-78
2022/12/10 12:08:09;;;;;;;37.38;18.95;;;0.70;99.90;;;;;;5018902;28;20037;-78
2022/12/10 12:10:51;;;;;;;41.03;20.75;;;0.80;99.90;;;;;;5045140;28;20584;-78
2022/12/10 12:13:26;;;;;;;40.33;19.08;;;0.80;99.90;;;;;;5029666;28;20044;-78
2022/12/10 12:16:09;;;;;;;35.60;18.20;;;0.80;99.90;;;;;;5043433;28;20032;-77
2022/12/10 12:19:19;;;;;;;37.55;18.55;;;0.80;99.90;;;;;;5045628;28;20704;-78
2022/12/10 12:21:49;;;;;;;38.95;18.02;;;0.80;99.90;;;;;;4958350;28;20035;-76
2022/12/10 12:24:24;;;;;;;40.10;19.75;;;0.80;99.90;;;;;;5019970;28;20039;-78
2022/12/10 12:27:12;;;;;;;38.10;19.05;;;0.80;99.90;;;;;;5044484;28;20698;-76
2022/12/10 12:29:46;;;;;;;45.10;22.67;;;0.80;99.90;;;;;;5027454;28;20021;-77
2022/12/10 12:32:38;;;;;;;43.13;22.42;;;0.80;99.90;;;;;;5012979;28;20033;-77
2022/12/10 12:35:14;;;;;;;44.90;19.73;;;0.80;99.90;;;;;;5028764;28;20036;-77
2022/12/10 12:37:47;;;;;;;56.28;22.45;;;0.90;99.90;;;;;;5028942;28;20032;-78
2022/12/10 12:40:35;;;;;;;54.95;24.15;;;0.80;99.90;;;;;;5030651;28;20029;-77
2022/12/10 12:43:07;;;;;;;54.42;23.67;;;0.90;99.90;;;;;;5024008;28;20497;-78
2022/12/10 12:45:40;;;;;;;56.03;23.90;;;0.90;99.90;;;;;;5026483;28;20041;-78
2022/12/10 12:48:13;;;;;;;62.10;25.23;;;0.90;99.90;;;;;;5009120;28;20397;-78
2022/12/10 12:50:45;;;;;;;55.22;24.27;;;0.90;99.90;;;;;;5028888;28;20028;-77
2022/12/10 12:53:22;;;;;;;51.65;22.35;;;0.90;99.90;;;;;;5043161;28;20029;-77